createdAt,value
2023-05-14T00:01:02.762Z,6.10
2023-05-14T00:03:29.528Z,6.40
2023-05-14T00:05:57.564Z,7.80
2023-05-14T00:08:24.282Z,6.77
2023-05-14T00:10:51.011Z,7.60
2023-05-14T00:13:17.711Z,7.20
2023-05-14T00:17:46.805Z,8.50
2023-05-14T00:20:13.641Z,5.73
2023-05-14T00:22:40.592Z,6.20
2023-05-14T00:25:08.716Z,6.87
2023-05-14T00:27:35.750Z,7.03
2023-05-14T00:30:02.769Z,6.77
2023-05-14T00:32:29.627Z,6.67
2023-05-14T00:34:57.968Z,6.50
2023-05-14T00:37:24.836Z,7.60
2023-05-14T00:39:51.529Z,6.90
2023-05-14T00:42:18.239Z,7.20
2023-05-14T00:44:44.878Z,6.77
2023-05-14T00:47:11.981Z,6.80
2023-05-14T00:49:38.698Z,6.63
2023-05-14T00:52:07.093Z,6.43
2023-05-14T00:54:34.739Z,6.20
2023-05-14T00:57:01.887Z,7.17
2023-05-14T00:59:28.553Z,10.90
2023-05-14T01:01:55.392Z,11.57
2023-05-14T01:04:22.321Z,12.50
2023-05-14T01:06:57.586Z,9.20
2023-05-14T01:09:31.390Z,10.70
2023-05-14T01:12:02.803Z,9.00
2023-05-14T01:14:38.129Z,9.00
2023-05-14T01:17:05.160Z,8.30
2023-05-14T01:19:37.820Z,8.33
2023-05-14T01:22:06.024Z,8.33
2023-05-14T01:24:32.849Z,8.33
2023-05-14T01:27:05.277Z,8.03
2023-05-14T01:29:34.680Z,8.47
2023-05-14T01:32:04.180Z,8.07
2023-05-14T01:34:31.603Z,8.07
2023-05-14T01:36:59.164Z,6.77
2023-05-14T01:39:27.877Z,7.60
2023-05-14T01:41:54.994Z,7.80
2023-05-14T01:44:22.118Z,8.20
2023-05-14T01:46:48.792Z,8.43
2023-05-14T01:49:15.578Z,11.00
2023-05-14T01:51:42.239Z,7.80
2023-05-14T01:54:08.918Z,7.90
2023-05-14T01:56:36.982Z,7.63
2023-05-14T01:59:03.679Z,8.23
2023-05-14T02:01:30.465Z,8.30
2023-05-14T02:03:57.272Z,7.13
2023-05-14T02:06:24.055Z,6.70
2023-05-14T02:08:50.742Z,8.97
2023-05-14T02:11:17.457Z,7.50
2023-05-14T02:13:45.581Z,8.00
2023-05-14T02:16:12.350Z,7.20
2023-05-14T02:18:39.057Z,7.57
2023-05-14T02:21:05.784Z,8.33
2023-05-14T02:23:40.975Z,8.57
2023-05-14T02:26:09.195Z,7.60
2023-05-14T02:28:35.968Z,7.93
2023-05-14T02:31:04.011Z,6.43
2023-05-14T02:33:30.750Z,7.90
2023-05-14T02:35:57.507Z,8.37
2023-05-14T02:38:24.196Z,8.87
2023-05-14T02:40:50.860Z,6.50
2023-05-14T02:43:17.548Z,6.37
2023-05-14T02:45:44.227Z,8.00
2023-05-14T02:48:12.245Z,8.27
2023-05-14T02:50:39.169Z,6.90
2023-05-14T02:53:05.850Z,6.00
2023-05-14T02:55:32.577Z,7.83
2023-05-14T02:57:59.255Z,7.53
2023-05-14T03:00:26.156Z,6.00
2023-05-14T03:02:53.570Z,6.00
2023-05-14T03:05:22.336Z,6.47
2023-05-14T03:07:50.806Z,7.40
2023-05-14T03:10:17.564Z,7.50
2023-05-14T03:12:44.249Z,7.27
2023-05-14T03:15:11.533Z,6.70
2023-05-14T03:17:38.227Z,7.27
2023-05-14T03:20:05.933Z,7.07
2023-05-14T03:22:34.100Z,7.40
2023-05-14T03:25:00.784Z,6.37
2023-05-14T03:27:27.431Z,6.10
2023-05-14T03:29:54.189Z,7.47
2023-05-14T03:32:20.923Z,8.17
2023-05-14T03:34:47.666Z,8.63
2023-05-14T03:37:14.377Z,7.60
2023-05-14T03:39:42.415Z,6.10
2023-05-14T03:42:09.138Z,8.90
2023-05-14T03:44:35.820Z,8.67
2023-05-14T03:47:02.497Z,7.70
2023-05-14T03:49:29.203Z,8.60
2023-05-14T03:51:55.895Z,7.47
2023-05-14T03:54:22.579Z,10.30
2023-05-14T03:56:50.634Z,9.73
2023-05-14T03:59:17.345Z,9.80
2023-05-14T04:01:44.225Z,9.97
2023-05-14T04:04:10.983Z,11.57
2023-05-14T04:06:37.700Z,10.20
2023-05-14T04:09:04.438Z,10.50
2023-05-14T04:11:31.336Z,8.53
2023-05-14T04:13:59.704Z,9.70
2023-05-14T04:16:26.433Z,9.80
2023-05-14T04:18:53.253Z,9.87
2023-05-14T04:21:20.024Z,8.20
2023-05-14T04:23:46.737Z,9.20
2023-05-14T04:26:13.454Z,9.27
2023-05-14T04:28:40.100Z,10.70
2023-05-14T04:31:08.105Z,9.17
2023-05-14T04:33:34.800Z,9.67
2023-05-14T04:36:01.455Z,9.70
2023-05-14T04:38:28.174Z,11.17
2023-05-14T04:40:54.880Z,8.93
2023-05-14T04:43:21.574Z,10.47
2023-05-14T04:45:48.273Z,10.20
2023-05-14T04:48:16.391Z,9.67
2023-05-14T04:50:43.196Z,9.87
2023-05-14T04:53:10.164Z,10.10
2023-05-14T04:55:37.019Z,10.43
2023-05-14T04:58:03.708Z,10.23
2023-05-14T05:00:30.424Z,10.13
2023-05-14T05:02:57.190Z,9.47
2023-05-14T05:05:25.405Z,10.67
2023-05-14T05:07:52.085Z,10.00
2023-05-14T05:10:18.781Z,10.40
2023-05-14T05:12:45.474Z,10.57
2023-05-14T05:15:12.216Z,11.60
2023-05-14T05:17:38.955Z,10.50
2023-05-14T05:20:06.934Z,10.13
2023-05-14T05:22:35.037Z,10.33
2023-05-14T05:25:01.896Z,11.10
2023-05-14T05:27:28.567Z,10.10
2023-05-14T05:29:55.275Z,10.47
2023-05-14T05:32:21.923Z,9.80
2023-05-14T05:34:48.598Z,10.97
2023-05-14T05:37:15.271Z,10.03
2023-05-14T05:39:43.508Z,11.20
2023-05-14T05:42:10.278Z,10.63
2023-05-14T05:44:36.945Z,11.07
2023-05-14T05:47:03.920Z,10.03
2023-05-14T05:49:30.625Z,10.80
2023-05-14T05:51:57.363Z,10.77
2023-05-14T05:54:24.581Z,10.27
2023-05-14T05:56:52.668Z,9.50
2023-05-14T05:59:19.371Z,10.77
2023-05-14T06:01:46.072Z,11.57
2023-05-14T06:04:12.729Z,10.03
2023-05-14T06:06:39.419Z,10.77
2023-05-14T06:09:06.122Z,10.37
2023-05-14T06:11:32.881Z,10.60
2023-05-14T06:14:00.932Z,10.87
2023-05-14T06:16:27.764Z,9.80
2023-05-14T06:18:54.772Z,10.27
2023-05-14T06:21:21.728Z,12.60
2023-05-14T06:23:48.781Z,10.20
2023-05-14T06:26:15.566Z,10.20
2023-05-14T06:28:42.208Z,11.40
2023-05-14T06:31:10.301Z,11.10
2023-05-14T06:33:36.998Z,10.70
2023-05-14T06:36:05.785Z,8.37
2023-05-14T06:38:32.488Z,10.70
2023-05-14T06:40:59.130Z,11.20
2023-05-14T06:43:25.904Z,10.60
2023-05-14T06:45:52.938Z,11.93
2023-05-14T06:48:21.401Z,10.63
2023-05-14T06:50:48.934Z,9.73
2023-05-14T06:53:16.124Z,11.00
2023-05-14T06:55:43.001Z,11.30
2023-05-14T06:58:09.959Z,10.60
2023-05-14T07:00:36.644Z,11.20
2023-05-14T07:03:03.373Z,11.90
2023-05-14T07:05:31.538Z,10.63
2023-05-14T07:07:58.267Z,9.87
2023-05-14T07:10:25.144Z,11.97
2023-05-14T07:12:52.058Z,10.30
2023-05-14T07:15:19.113Z,9.90
2023-05-14T07:17:45.813Z,11.70
2023-05-14T07:20:13.389Z,10.37
2023-05-14T07:22:41.451Z,10.40
2023-05-14T07:25:08.705Z,10.53
2023-05-14T07:27:36.689Z,10.37
2023-05-14T07:30:20.063Z,9.87
2023-05-14T07:32:47.419Z,10.80
2023-05-14T07:35:14.321Z,11.47
2023-05-14T07:37:45.558Z,10.97
2023-05-14T07:40:12.822Z,9.10
2023-05-14T07:42:39.623Z,10.97
2023-05-14T07:45:07.465Z,10.87
2023-05-14T07:47:34.327Z,11.53
2023-05-14T07:50:01.424Z,9.00
2023-05-14T07:52:28.166Z,9.47
2023-05-14T07:54:56.270Z,10.50
2023-05-14T07:57:22.948Z,9.30
2023-05-14T07:59:49.777Z,10.50
2023-05-14T08:02:16.859Z,10.23
2023-05-14T08:04:43.951Z,11.23
2023-05-14T08:07:10.672Z,9.90
2023-05-14T08:09:37.442Z,10.73
2023-05-14T08:12:06.562Z,10.47
2023-05-14T08:14:33.212Z,10.20
2023-05-14T08:16:59.940Z,11.53
2023-05-14T08:19:26.626Z,10.67
2023-05-14T08:21:53.310Z,11.10
2023-05-14T08:24:20.140Z,10.70
2023-05-14T08:26:46.818Z,10.37
2023-05-14T08:29:16.579Z,11.20
2023-05-14T08:31:43.825Z,10.50
2023-05-14T08:34:10.624Z,11.07
2023-05-14T08:36:38.342Z,10.00
2023-05-14T08:39:05.211Z,11.27
2023-05-14T08:41:32.091Z,9.63
2023-05-14T08:44:07.184Z,9.50
2023-05-14T08:46:37.302Z,9.30
2023-05-14T08:49:13.265Z,9.87
2023-05-14T08:51:40.211Z,10.50
2023-05-14T08:54:07.240Z,8.20
2023-05-14T08:56:34.076Z,8.70
2023-05-14T08:59:00.783Z,7.57
2023-05-14T09:01:28.345Z,5.40
2023-05-14T09:03:57.829Z,6.03
2023-05-14T09:06:25.397Z,4.87
2023-05-14T09:08:52.894Z,5.17
2023-05-14T09:11:19.570Z,5.60
2023-05-14T09:13:46.228Z,5.00
2023-05-14T09:16:13.246Z,5.10
2023-05-14T09:18:43.699Z,5.10
2023-05-14T09:21:13.719Z,4.53
2023-05-14T09:23:42.291Z,4.00
2023-05-14T09:26:08.960Z,4.43
2023-05-14T09:28:35.684Z,4.30
2023-05-14T09:31:02.897Z,5.47
2023-05-14T09:33:29.873Z,4.53
2023-05-14T09:35:58.891Z,4.23
2023-05-14T09:38:29.740Z,4.50
2023-05-14T09:40:56.508Z,4.23
2023-05-14T09:43:23.292Z,4.47
2023-05-14T09:45:50.091Z,4.77
2023-05-14T09:48:16.795Z,4.90
2023-05-14T09:50:44.203Z,4.47
2023-05-14T09:53:11.156Z,3.97
2023-05-14T09:55:39.466Z,4.30
2023-05-14T09:58:06.229Z,4.17
2023-05-14T10:00:33.997Z,4.30
2023-05-14T10:03:04.733Z,4.27
2023-05-14T10:05:32.898Z,4.83
2023-05-14T10:08:00.773Z,4.13
2023-05-14T10:10:29.551Z,3.77
2023-05-14T10:13:02.651Z,4.43
2023-05-14T10:15:33.818Z,4.20
2023-05-14T10:18:03.867Z,3.57
2023-05-14T10:20:31.353Z,3.80
2023-05-14T10:22:58.652Z,2.20
2023-05-14T10:25:25.897Z,3.23
2023-05-14T10:27:53.320Z,3.97
2023-05-14T10:30:22.830Z,3.13
2023-05-14T10:32:49.836Z,2.97
2023-05-14T10:35:18.015Z,3.70
2023-05-14T10:37:45.199Z,4.57
2023-05-14T10:40:12.688Z,3.77
2023-05-14T10:42:39.715Z,4.00
2023-05-14T10:45:08.210Z,4.07
2023-05-14T10:47:38.573Z,3.53
2023-05-14T10:50:07.824Z,3.67
2023-05-14T10:52:35.109Z,4.27
2023-05-14T10:55:04.092Z,4.03
2023-05-14T10:57:32.616Z,3.70
2023-05-14T11:00:00.644Z,2.80
2023-05-14T11:02:28.765Z,3.50
2023-05-14T11:05:01.181Z,3.43
2023-05-14T11:07:30.022Z,2.60
2023-05-14T11:10:04.684Z,3.40
2023-05-14T11:12:32.062Z,3.80
2023-05-14T11:15:00.396Z,2.87
2023-05-14T11:17:28.394Z,4.13
2023-05-14T11:19:55.868Z,3.17
2023-05-14T11:22:24.566Z,3.53
2023-05-14T11:24:51.461Z,3.37
2023-05-14T11:27:18.704Z,3.30
2023-05-14T11:29:46.646Z,3.67
2023-05-14T11:32:14.229Z,3.67
2023-05-14T11:34:41.740Z,4.30
2023-05-14T11:37:09.228Z,4.20
2023-05-14T11:39:37.272Z,3.63
2023-05-14T11:42:05.283Z,6.33
2023-05-14T11:44:32.237Z,3.67
2023-05-14T11:47:00.850Z,4.03
2023-05-14T11:49:28.466Z,3.93
2023-05-14T11:51:58.190Z,4.90
2023-05-14T11:54:26.440Z,3.83
2023-05-14T11:56:54.978Z,3.80
2023-05-14T11:59:22.014Z,4.07
2023-05-14T12:01:50.690Z,3.60
2023-05-14T12:04:18.830Z,3.20
2023-05-14T12:06:45.649Z,4.80
2023-05-14T12:09:12.869Z,3.87
2023-05-14T12:11:39.517Z,4.33
2023-05-14T12:14:14.356Z,4.33
2023-05-14T12:16:41.870Z,4.27
2023-05-14T12:19:09.989Z,4.10
2023-05-14T12:21:37.278Z,3.97
2023-05-14T12:24:04.362Z,4.00
2023-05-14T12:26:32.873Z,4.73
2023-05-14T12:29:00.880Z,3.67
2023-05-14T12:31:32.424Z,3.90
2023-05-14T12:33:59.265Z,3.53
2023-05-14T12:36:26.263Z,3.93
2023-05-14T12:38:59.016Z,4.13
2023-05-14T12:41:25.758Z,3.50
2023-05-14T12:43:52.396Z,3.50
2023-05-14T12:46:19.227Z,4.10
2023-05-14T12:48:47.307Z,4.67
2023-05-14T12:51:14.031Z,3.60
2023-05-14T12:53:40.731Z,3.87
2023-05-14T12:56:07.929Z,4.07
2023-05-14T12:58:34.613Z,3.50
2023-05-14T13:01:01.461Z,4.03
2023-05-14T13:03:28.289Z,3.80
2023-05-14T13:05:56.458Z,3.80
2023-05-14T13:08:23.539Z,3.87
2023-05-14T13:10:50.368Z,3.57
2023-05-14T13:13:17.145Z,3.80
2023-05-14T13:15:43.941Z,3.53
2023-05-14T13:18:10.697Z,3.70
2023-05-14T13:20:37.362Z,3.60
2023-05-14T13:23:05.346Z,3.77
2023-05-14T13:25:32.075Z,3.80
2023-05-14T13:27:58.887Z,3.63
2023-05-14T13:30:25.729Z,3.53
2023-05-14T13:32:52.459Z,3.93
2023-05-14T13:35:19.504Z,3.70
2023-05-14T13:37:46.990Z,4.23
2023-05-14T13:40:15.291Z,4.20
2023-05-14T13:42:41.940Z,3.40
2023-05-14T13:45:09.407Z,4.00
2023-05-14T13:47:36.167Z,4.50
2023-05-14T13:50:03.209Z,4.50
2023-05-14T13:52:29.903Z,3.60
2023-05-14T13:54:56.595Z,5.30
2023-05-14T13:57:24.652Z,4.63
2023-05-14T13:59:51.365Z,3.97
2023-05-14T14:02:18.123Z,3.70
2023-05-14T14:04:44.932Z,4.00
2023-05-14T14:07:11.688Z,5.53
2023-05-14T14:09:38.383Z,3.77
2023-05-14T14:12:06.061Z,4.27
2023-05-14T14:14:34.170Z,4.03
2023-05-14T14:17:00.810Z,3.60
2023-05-14T14:19:27.484Z,5.07
2023-05-14T14:21:54.204Z,4.53
2023-05-14T14:24:20.917Z,4.10
2023-05-14T14:26:47.606Z,4.10
2023-05-14T14:29:14.537Z,4.93
2023-05-14T14:31:51.365Z,4.63
2023-05-14T14:34:30.031Z,4.03
2023-05-14T14:36:56.747Z,3.93
2023-05-14T14:39:23.450Z,4.00
2023-05-14T14:41:50.212Z,3.90
2023-05-14T14:44:16.948Z,4.60
2023-05-14T14:46:44.979Z,5.07
2023-05-14T14:49:11.666Z,3.93
2023-05-14T14:51:38.390Z,4.37
2023-05-14T14:54:05.253Z,4.97
2023-05-14T14:56:32.400Z,4.10
2023-05-14T14:58:59.115Z,4.93
2023-05-14T15:01:25.967Z,4.63
2023-05-14T15:03:54.097Z,4.33
2023-05-14T15:06:20.844Z,4.47
2023-05-14T15:08:47.504Z,4.33
2023-05-14T15:11:14.347Z,5.00
2023-05-14T15:13:41.038Z,2.27
2023-05-14T15:16:07.851Z,4.43
2023-05-14T15:18:34.627Z,4.23
2023-05-14T15:21:02.644Z,4.10
2023-05-14T15:23:29.333Z,4.53
2023-05-14T15:25:55.969Z,5.50
2023-05-14T15:28:22.665Z,4.67
2023-05-14T15:30:49.394Z,5.10
2023-05-14T15:33:16.126Z,4.27
2023-05-14T15:35:42.788Z,4.70
2023-05-14T15:38:10.908Z,4.50
2023-05-14T15:40:37.660Z,4.53
2023-05-14T15:43:04.549Z,4.00
2023-05-14T15:45:31.264Z,5.00
2023-05-14T15:47:58.016Z,4.10
2023-05-14T15:50:24.896Z,4.77
2023-05-14T15:52:51.765Z,4.10
2023-05-14T15:55:19.858Z,4.60
2023-05-14T15:57:46.720Z,4.13
2023-05-14T16:00:14.069Z,4.73
2023-05-14T16:02:40.867Z,4.97
2023-05-14T16:05:08.347Z,4.50
2023-05-14T16:07:35.711Z,4.93
2023-05-14T16:10:02.497Z,4.13
2023-05-14T16:12:30.578Z,4.17
2023-05-14T16:14:57.263Z,4.37
2023-05-14T16:17:24.132Z,4.20
2023-05-14T16:19:51.142Z,4.10
2023-05-14T16:22:18.330Z,4.20
2023-05-14T16:24:45.024Z,4.03
2023-05-14T16:27:11.862Z,4.33
2023-05-14T16:29:39.866Z,4.07
2023-05-14T16:32:07.140Z,4.50
2023-05-14T16:34:34.079Z,4.20
2023-05-14T16:37:00.869Z,5.27
2023-05-14T16:39:27.658Z,4.77
2023-05-14T16:41:54.472Z,4.40
2023-05-14T16:44:21.206Z,4.70
2023-05-14T16:46:49.299Z,4.37
2023-05-14T16:49:16.124Z,4.50
2023-05-14T16:51:44.194Z,4.67
2023-05-14T16:54:10.947Z,4.30
2023-05-14T16:56:37.694Z,5.00
2023-05-14T16:59:04.528Z,4.73
2023-05-14T17:01:31.758Z,4.53
2023-05-14T17:03:59.813Z,3.97
2023-05-14T17:06:26.570Z,4.23
2023-05-14T17:08:55.353Z,4.13
2023-05-14T17:11:22.243Z,4.17
2023-05-14T17:13:48.922Z,4.30
2023-05-14T17:16:15.652Z,3.60
2023-05-14T17:18:42.495Z,4.73
2023-05-14T17:21:10.600Z,4.53
2023-05-14T17:23:37.382Z,3.57
2023-05-14T17:26:06.565Z,3.67
2023-05-14T17:28:33.353Z,3.50
2023-05-14T17:31:00.150Z,3.70
2023-05-14T17:33:26.869Z,4.23
2023-05-14T17:35:53.683Z,3.63
2023-05-14T17:38:21.760Z,5.37
2023-05-14T17:40:48.463Z,4.77
2023-05-14T17:43:15.175Z,4.27
2023-05-14T17:45:53.283Z,4.43
2023-05-14T17:48:21.503Z,3.73
2023-05-14T17:50:48.291Z,4.60
2023-05-14T17:53:15.039Z,4.70
2023-05-14T17:55:43.441Z,5.00
2023-05-14T17:58:10.766Z,4.17
2023-05-14T18:00:37.573Z,4.43
2023-05-14T18:03:04.651Z,4.53
2023-05-14T18:05:32.272Z,4.60
2023-05-14T18:07:59.470Z,4.10
2023-05-14T18:10:26.239Z,4.83
2023-05-14T18:12:54.321Z,4.10
2023-05-14T18:15:21.112Z,4.17
2023-05-14T18:17:47.925Z,4.73
2023-05-14T18:20:14.623Z,4.40
2023-05-14T18:22:41.329Z,4.33
2023-05-14T18:25:08.768Z,4.07
2023-05-14T18:27:35.508Z,4.67
2023-05-14T18:30:03.841Z,4.33
2023-05-14T18:32:30.534Z,5.13
2023-05-14T18:34:57.188Z,4.33
2023-05-14T18:37:23.852Z,5.00
2023-05-14T18:39:50.492Z,4.40
2023-05-14T18:42:17.203Z,4.63
2023-05-14T18:44:44.148Z,4.00
2023-05-14T18:47:12.423Z,4.20
2023-05-14T18:49:39.082Z,3.50
2023-05-14T18:52:06.480Z,5.00
2023-05-14T18:54:33.382Z,3.97
2023-05-14T18:57:00.709Z,4.53
2023-05-14T18:59:27.406Z,3.90
2023-05-14T19:01:54.108Z,4.17
2023-05-14T19:04:22.133Z,4.07
2023-05-14T19:06:48.821Z,4.10
2023-05-14T19:09:15.489Z,4.00
2023-05-14T19:11:42.170Z,4.07
2023-05-14T19:14:09.043Z,4.60
2023-05-14T19:16:35.768Z,4.90
2023-05-14T19:19:03.445Z,4.40
2023-05-14T19:21:31.846Z,4.27
2023-05-14T19:23:58.940Z,4.10
2023-05-14T19:26:25.978Z,4.20
2023-05-14T19:28:54.553Z,4.53
2023-05-14T19:31:21.622Z,4.23
2023-05-14T19:33:48.405Z,3.97
2023-05-14T19:36:15.493Z,4.40
2023-05-14T19:38:43.579Z,3.60
2023-05-14T19:41:10.292Z,4.47
2023-05-14T19:43:36.985Z,4.77
2023-05-14T19:46:04.450Z,4.07
2023-05-14T19:48:31.813Z,4.30
2023-05-14T19:50:58.509Z,4.40
2023-05-14T19:53:25.306Z,4.13
2023-05-14T19:55:53.345Z,5.07
2023-05-14T19:58:20.077Z,4.77
2023-05-14T20:00:46.943Z,4.77
2023-05-14T20:03:13.812Z,4.90
2023-05-14T20:05:40.577Z,3.90
2023-05-14T20:08:07.403Z,5.53
2023-05-14T20:10:34.058Z,4.23
2023-05-14T20:13:02.016Z,4.50
2023-05-14T20:15:28.736Z,4.90
2023-05-14T20:17:55.473Z,4.30
2023-05-14T20:20:22.269Z,4.13
2023-05-14T20:22:48.993Z,3.77
2023-05-14T20:25:15.727Z,4.37
2023-05-14T20:27:42.523Z,4.77
2023-05-14T20:30:11.124Z,4.40
2023-05-14T20:32:37.919Z,4.80
2023-05-14T20:35:05.473Z,3.70
2023-05-14T20:37:32.541Z,4.47
2023-05-14T20:40:00.785Z,3.60
2023-05-14T20:42:27.724Z,4.00
2023-05-14T20:44:54.641Z,4.13
2023-05-14T20:47:25.644Z,4.17
2023-05-14T20:49:52.341Z,3.97
2023-05-14T20:52:19.319Z,3.97
2023-05-14T20:54:46.030Z,4.40
2023-05-14T20:57:12.966Z,4.07
2023-05-14T20:59:39.646Z,3.90
2023-05-14T21:02:06.407Z,3.97
2023-05-14T21:04:34.617Z,3.43
2023-05-14T21:07:01.911Z,4.50
2023-05-14T21:09:28.560Z,3.30
2023-05-14T21:11:55.227Z,3.73
2023-05-14T21:14:22.008Z,4.20
2023-05-14T21:16:48.879Z,4.37
2023-05-14T21:19:15.744Z,3.93
2023-05-14T21:21:43.896Z,4.00
2023-05-14T21:24:10.633Z,4.00
2023-05-14T21:26:37.576Z,4.43
2023-05-14T21:29:04.222Z,5.17
2023-05-14T21:31:30.963Z,4.33
2023-05-14T21:33:57.674Z,4.90
2023-05-14T21:36:24.384Z,3.90
2023-05-14T21:38:53.086Z,4.13
2023-05-14T21:41:19.844Z,4.60
2023-05-14T21:43:46.666Z,5.30
2023-05-14T21:46:13.415Z,5.40
2023-05-14T21:48:40.236Z,5.47
2023-05-14T21:51:07.174Z,5.13
2023-05-14T21:53:33.866Z,4.27
2023-05-14T21:56:01.892Z,4.10
2023-05-14T21:58:28.593Z,4.50
2023-05-14T22:00:55.282Z,5.47
2023-05-14T22:03:22.148Z,5.97
2023-05-14T22:05:49.160Z,5.80
2023-05-14T22:08:15.916Z,5.10
2023-05-14T22:10:42.617Z,4.37
2023-05-14T22:13:10.704Z,4.63
2023-05-14T22:15:38.075Z,4.00
2023-05-14T22:18:05.180Z,4.23
2023-05-14T22:20:34.380Z,3.60
2023-05-14T22:23:17.312Z,5.20
2023-05-14T22:25:56.264Z,5.20
2023-05-14T22:28:32.811Z,5.30
2023-05-14T22:34:23.331Z,4.63
2023-05-14T22:44:13.676Z,5.27
2023-05-14T22:46:41.735Z,4.07
2023-05-14T22:49:08.435Z,4.30
2023-05-14T22:51:35.077Z,4.50
2023-05-14T22:54:01.743Z,4.30
2023-05-14T22:56:28.557Z,4.87
2023-05-14T22:58:55.243Z,5.23
2023-05-14T23:01:22.012Z,5.47
2023-05-14T23:03:50.188Z,5.10
2023-05-14T23:06:16.919Z,5.40
2023-05-14T23:08:43.646Z,5.63
2023-05-14T23:11:10.328Z,5.53
2023-05-14T23:13:37.003Z,4.40
2023-05-14T23:16:04.308Z,5.80
2023-05-14T23:18:31.014Z,4.47
2023-05-14T23:20:59.316Z,5.47
2023-05-14T23:23:25.940Z,5.60
2023-05-14T23:25:53.160Z,5.70
2023-05-14T23:28:19.844Z,4.37
2023-05-14T23:30:46.502Z,6.90
2023-05-14T23:33:13.229Z,6.00
2023-05-14T23:35:40.211Z,5.10
2023-05-14T23:38:08.469Z,6.07
2023-05-14T23:40:35.263Z,5.20
2023-05-14T23:43:01.885Z,6.80
2023-05-14T23:45:28.983Z,7.50
2023-05-14T23:47:58.072Z,5.70
2023-05-14T23:50:25.114Z,6.07
2023-05-14T23:52:52.804Z,6.53
2023-05-14T23:55:20.928Z,5.70
2023-05-14T23:57:48.029Z,5.90
